createdAt,value
2022-12-19T00:01:37.018Z,56.91
2022-12-19T00:04:09.052Z,56.68
2022-12-19T00:06:43.570Z,56.35
2022-12-19T00:09:11.783Z,56.89
2022-12-19T00:11:38.859Z,56.61
2022-12-19T00:14:06.374Z,57.14
2022-12-19T00:16:33.873Z,56.97
2022-12-19T00:19:01.990Z,56.98
2022-12-19T00:21:31.115Z,56.44
2022-12-19T00:24:03.059Z,55.95
2022-12-19T00:26:32.629Z,56.69
2022-12-19T00:29:03.314Z,56.40
2022-12-19T00:31:34.347Z,56.57
2022-12-19T00:34:02.045Z,56.66
2022-12-19T00:36:32.850Z,56.55
2022-12-19T00:39:02.101Z,55.83
2022-12-19T00:41:39.423Z,55.97
2022-12-19T00:44:13.080Z,55.97
2022-12-19T00:46:49.265Z,55.78
2022-12-19T00:49:20.720Z,55.44
2022-12-19T00:51:47.662Z,55.36
2022-12-19T00:54:14.729Z,55.36
2022-12-19T00:56:42.053Z,55.51
2022-12-19T00:59:10.459Z,55.53
2022-12-19T01:01:41.095Z,55.81
2022-12-19T01:04:29.559Z,55.81
2022-12-19T01:07:01.560Z,56.07
2022-12-19T01:09:33.659Z,55.41
2022-12-19T01:12:19.626Z,56.10
2022-12-19T01:14:54.611Z,55.18
2022-12-19T01:17:24.620Z,55.74
2022-12-19T01:19:53.250Z,55.44
2022-12-19T01:22:20.134Z,55.52
2022-12-19T01:24:47.013Z,55.72
2022-12-19T01:27:15.581Z,55.19
2022-12-19T01:29:51.797Z,55.07
2022-12-19T01:32:20.966Z,55.58
2022-12-19T01:34:47.925Z,55.25
2022-12-19T01:37:17.579Z,55.25
2022-12-19T01:39:45.000Z,55.16
2022-12-19T01:42:24.260Z,54.58
2022-12-19T01:45:13.316Z,54.67
2022-12-19T01:47:53.541Z,54.48
2022-12-19T01:50:56.960Z,54.65
2022-12-19T01:53:48.345Z,54.53
2022-12-19T01:56:19.024Z,54.91
2022-12-19T01:58:46.836Z,55.01
2022-12-19T02:01:16.481Z,54.81
2022-12-19T02:03:45.310Z,54.69
2022-12-19T02:06:16.384Z,54.62
2022-12-19T02:08:46.702Z,55.01
2022-12-19T02:11:13.717Z,54.92
2022-12-19T02:13:41.094Z,54.91
2022-12-19T02:16:43.760Z,55.33
2022-12-19T02:19:33.104Z,55.04
2022-12-19T02:22:19.192Z,54.91
2022-12-19T02:25:37.854Z,54.77
2022-12-19T02:28:34.629Z,55.23
2022-12-19T02:31:20.200Z,55.65
2022-12-19T02:34:22.861Z,55.37
2022-12-19T02:37:12.048Z,55.19
2022-12-19T02:40:16.545Z,54.87
2022-12-19T02:42:50.953Z,54.74
2022-12-19T02:45:28.551Z,54.84
2022-12-19T02:48:05.749Z,54.93
2022-12-19T02:50:39.685Z,54.77
2022-12-19T02:53:07.209Z,54.97
2022-12-19T02:56:09.341Z,54.80
2022-12-19T02:59:00.515Z,54.53
2022-12-19T03:01:58.201Z,54.96
2022-12-19T03:05:20.093Z,54.69
2022-12-19T03:08:07.373Z,54.79
2022-12-19T03:10:43.147Z,55.07
2022-12-19T03:13:13.173Z,55.24
2022-12-19T03:15:41.025Z,54.93
2022-12-19T03:18:09.538Z,54.92
2022-12-19T03:21:04.373Z,54.87
2022-12-19T03:23:31.999Z,54.84
2022-12-19T03:26:08.946Z,54.79
2022-12-19T03:29:20.334Z,54.74
2022-12-19T03:31:48.315Z,54.33
2022-12-19T03:34:31.934Z,54.54
2022-12-19T03:37:04.054Z,54.48
2022-12-19T03:39:32.477Z,55.04
2022-12-19T03:42:20.111Z,54.40
2022-12-19T03:44:49.711Z,54.90
2022-12-19T03:47:49.519Z,54.86
2022-12-19T03:50:16.665Z,54.71
2022-12-19T03:52:53.945Z,54.73
2022-12-19T03:55:41.542Z,54.67
2022-12-19T03:58:19.449Z,54.35
2022-12-19T04:00:48.494Z,54.30
2022-12-19T04:03:19.197Z,54.13
2022-12-19T04:05:48.536Z,54.52
2022-12-19T04:08:16.786Z,54.35
2022-12-19T04:10:50.452Z,54.67
2022-12-19T04:13:44.706Z,54.64
2022-12-19T04:16:28.370Z,54.99
2022-12-19T04:19:04.915Z,54.57
2022-12-19T04:21:44.200Z,54.50
2022-12-19T04:24:26.574Z,55.18
2022-12-19T04:26:56.058Z,54.56
2022-12-19T04:29:25.488Z,55.05
2022-12-19T04:31:53.037Z,54.72
2022-12-19T04:34:21.266Z,55.37
2022-12-19T04:36:50.321Z,54.67
2022-12-19T04:39:17.231Z,55.10
2022-12-19T04:41:44.166Z,55.08
2022-12-19T04:44:11.035Z,55.13
2022-12-19T04:46:37.940Z,55.56
2022-12-19T04:49:04.887Z,55.56
2022-12-19T04:51:32.067Z,54.66
2022-12-19T04:53:58.923Z,54.67
2022-12-19T04:56:25.865Z,55.02
2022-12-19T04:59:01.840Z,54.85
2022-12-19T05:01:28.837Z,55.33
2022-12-19T05:03:59.910Z,54.85
2022-12-19T05:06:29.765Z,55.18
2022-12-19T05:08:56.684Z,54.78
2022-12-19T05:11:23.578Z,55.08
2022-12-19T05:13:50.462Z,55.05
2022-12-19T05:16:17.534Z,55.08
2022-12-19T05:18:44.769Z,55.35
2022-12-19T05:21:12.028Z,55.54
2022-12-19T05:23:39.172Z,55.34
2022-12-19T05:26:07.375Z,55.68
2022-12-19T05:28:34.793Z,55.67
2022-12-19T05:31:12.769Z,55.11
2022-12-19T05:33:40.997Z,55.46
2022-12-19T05:36:09.412Z,55.06
2022-12-19T05:38:37.123Z,55.05
2022-12-19T05:41:17.520Z,55.57
2022-12-19T05:43:46.800Z,55.48
2022-12-19T05:46:13.763Z,55.16
2022-12-19T05:48:40.762Z,54.76
2022-12-19T05:51:08.402Z,55.23
2022-12-19T05:53:36.862Z,55.34
2022-12-19T05:56:13.400Z,55.07
2022-12-19T05:58:41.466Z,55.14
2022-12-19T06:01:23.102Z,54.63
2022-12-19T06:03:50.843Z,54.86
2022-12-19T06:06:25.032Z,54.95
2022-12-19T06:08:57.175Z,55.03
2022-12-19T06:11:24.783Z,55.38
2022-12-19T06:13:51.929Z,55.28
2022-12-19T06:16:21.409Z,55.42
2022-12-19T06:18:48.386Z,55.73
2022-12-19T06:21:18.830Z,55.05
2022-12-19T06:23:46.614Z,54.67
2022-12-19T06:26:19.769Z,55.07
2022-12-19T06:28:52.291Z,54.91
2022-12-19T06:31:22.013Z,54.71
2022-12-19T06:33:49.333Z,55.01
2022-12-19T06:36:23.928Z,54.71
2022-12-19T06:38:52.213Z,54.32
2022-12-19T06:41:38.511Z,54.42
2022-12-19T06:44:09.519Z,54.77
2022-12-19T06:46:37.905Z,54.46
2022-12-19T06:49:05.783Z,54.50
2022-12-19T06:51:32.845Z,54.40
2022-12-19T06:53:59.802Z,54.64
2022-12-19T06:56:27.062Z,55.07
2022-12-19T06:58:54.355Z,55.12
2022-12-19T07:01:32.434Z,54.91
2022-12-19T07:03:59.588Z,55.20
2022-12-19T07:06:26.505Z,54.95
2022-12-19T07:08:53.538Z,54.78
2022-12-19T07:11:20.431Z,54.70
2022-12-19T07:13:47.309Z,54.18
2022-12-19T07:16:14.331Z,54.42
2022-12-19T07:18:41.710Z,54.40
2022-12-19T07:21:11.288Z,54.58
2022-12-19T07:23:39.301Z,54.45
2022-12-19T07:26:06.335Z,54.52
2022-12-19T07:28:34.358Z,54.54
2022-12-19T07:31:01.270Z,54.49
2022-12-19T07:33:28.167Z,54.73
2022-12-19T07:35:55.059Z,54.54
2022-12-19T07:38:21.955Z,54.34
2022-12-19T07:40:48.847Z,54.23
2022-12-19T07:43:15.860Z,54.59
2022-12-19T07:45:42.868Z,54.54
2022-12-19T07:48:10.163Z,54.51
2022-12-19T07:50:37.141Z,54.57
2022-12-19T07:53:04.075Z,54.88
2022-12-19T07:55:30.975Z,54.87
2022-12-19T07:57:59.611Z,54.17
2022-12-19T08:00:26.580Z,54.73
2022-12-19T08:02:53.580Z,54.71
2022-12-19T08:05:20.529Z,54.89
2022-12-19T08:07:47.425Z,54.81
2022-12-19T08:10:15.069Z,55.02
2022-12-19T08:12:42.060Z,54.86
2022-12-19T08:15:09.473Z,54.94
2022-12-19T08:17:38.846Z,55.25
2022-12-19T08:20:07.944Z,54.92
2022-12-19T08:22:35.128Z,55.07
2022-12-19T08:25:02.017Z,55.12
2022-12-19T08:27:29.013Z,54.46
2022-12-19T08:29:55.896Z,55.12
2022-12-19T08:32:22.800Z,54.95
2022-12-19T08:34:50.486Z,54.92
2022-12-19T08:37:17.890Z,55.10
2022-12-19T08:39:44.899Z,54.73
2022-12-19T08:42:11.806Z,54.76
2022-12-19T08:44:38.723Z,54.19
2022-12-19T08:47:05.654Z,54.76
2022-12-19T08:49:32.598Z,54.39
2022-12-19T08:51:59.477Z,54.73
2022-12-19T08:54:27.144Z,54.63
2022-12-19T08:56:54.170Z,54.75
2022-12-19T08:59:30.563Z,54.54
2022-12-19T09:02:00.727Z,55.10
2022-12-19T09:05:17.253Z,54.62
2022-12-19T09:07:16.312Z,54.73
2022-12-19T09:09:44.749Z,54.78
2022-12-19T09:12:13.571Z,54.59
2022-12-19T09:14:40.458Z,54.42
2022-12-19T09:17:09.139Z,54.52
2022-12-19T09:19:36.232Z,54.35
2022-12-19T09:22:03.171Z,54.25
2022-12-19T09:24:30.068Z,54.83
2022-12-19T09:26:56.945Z,54.51
2022-12-19T09:29:24.745Z,54.26
2022-12-19T09:31:56.462Z,54.25
2022-12-19T09:34:36.665Z,54.55
2022-12-19T09:37:15.425Z,54.58
2022-12-19T09:39:46.143Z,53.91
2022-12-19T09:42:43.502Z,54.12
2022-12-19T09:45:32.361Z,54.09
2022-12-19T09:48:01.345Z,54.62
2022-12-19T09:50:53.927Z,54.57
2022-12-19T09:53:33.639Z,54.15
2022-12-19T09:56:02.792Z,54.27
2022-12-19T09:58:43.403Z,54.36
2022-12-19T10:01:34.179Z,54.23
2022-12-19T10:04:11.612Z,54.41
2022-12-19T10:07:08.829Z,54.07
2022-12-19T10:12:14.549Z,54.03
2022-12-19T10:13:07.677Z,54.24
2022-12-19T10:16:10.850Z,53.92
2022-12-19T10:19:09.124Z,54.00
2022-12-19T10:22:17.758Z,53.86
2022-12-19T10:25:08.205Z,53.86
2022-12-19T10:28:00.502Z,53.80
2022-12-19T10:30:35.988Z,53.82
2022-12-19T10:33:53.705Z,53.77
2022-12-19T10:36:36.260Z,54.20
2022-12-19T10:39:21.906Z,54.83
2022-12-19T10:41:51.382Z,54.89
2022-12-19T10:44:19.277Z,54.72
2022-12-19T10:46:49.702Z,54.74
2022-12-19T10:49:26.989Z,54.62
2022-12-19T10:52:01.934Z,55.35
2022-12-19T10:54:38.018Z,54.89
2022-12-19T10:57:22.688Z,54.76
2022-12-19T11:00:20.165Z,55.17
2022-12-19T11:02:53.685Z,54.76
2022-12-19T11:05:45.855Z,54.66
2022-12-19T11:08:20.635Z,54.37
2022-12-19T11:11:49.340Z,54.82
2022-12-19T11:19:39.726Z,53.88
2022-12-19T11:23:04.940Z,54.44
2022-12-19T11:29:27.068Z,54.34
2022-12-19T11:29:39.637Z,53.58
2022-12-19T11:30:46.073Z,54.43
2022-12-19T11:30:59.588Z,53.68
2022-12-19T11:34:23.627Z,54.08
2022-12-19T11:36:58.323Z,53.58
2022-12-19T11:39:43.735Z,53.46
2022-12-19T11:42:39.258Z,53.29
2022-12-19T11:45:46.950Z,53.32
2022-12-19T11:48:27.360Z,53.82
2022-12-19T11:51:34.860Z,53.95
2022-12-19T11:54:25.813Z,54.21
2022-12-19T11:56:52.778Z,54.05
2022-12-19T11:59:21.950Z,54.42
2022-12-19T12:02:05.291Z,54.40
2022-12-19T12:04:54.616Z,55.10
2022-12-19T12:07:40.651Z,55.11
2022-12-19T12:16:21.147Z,55.01
2022-12-19T12:26:23.076Z,55.57
2022-12-19T12:30:02.883Z,56.18
2022-12-19T12:31:04.009Z,55.93
2022-12-19T12:31:29.274Z,56.10
2022-12-19T12:31:43.410Z,56.54
2022-12-19T12:31:52.366Z,56.63
2022-12-19T12:35:34.430Z,57.28
2022-12-19T12:39:04.052Z,57.38
2022-12-19T12:42:05.014Z,57.20
2022-12-19T12:44:44.833Z,57.24
2022-12-19T12:47:26.563Z,57.40
2022-12-19T12:50:08.700Z,57.97
2022-12-19T12:52:47.907Z,57.60
2022-12-19T12:55:39.985Z,57.53
2022-12-19T12:58:45.661Z,57.71
2022-12-19T13:01:33.842Z,58.52
2022-12-19T13:04:12.827Z,58.38
2022-12-19T13:07:26.191Z,58.57
2022-12-19T13:10:21.451Z,58.77
2022-12-19T13:13:16.516Z,58.76
2022-12-19T13:15:46.020Z,58.79
2022-12-19T13:18:33.519Z,59.13
2022-12-19T13:21:04.100Z,59.79
2022-12-19T13:23:42.720Z,59.60
2022-12-19T13:26:42.276Z,59.90
2022-12-19T13:30:01.157Z,59.52
2022-12-19T13:32:39.001Z,59.83
2022-12-19T13:36:54.760Z,60.58
2022-12-19T13:40:01.585Z,60.93
2022-12-19T13:41:47.067Z,60.89
2022-12-19T13:44:14.411Z,60.76
2022-12-19T13:46:43.823Z,61.19
2022-12-19T13:49:14.177Z,60.99
2022-12-19T13:51:57.171Z,61.31
2022-12-19T13:54:48.833Z,61.27
2022-12-19T13:57:29.848Z,61.24
2022-12-19T14:00:02.221Z,61.08
2022-12-19T14:02:45.028Z,61.71
2022-12-19T14:05:49.389Z,61.63
2022-12-19T14:08:22.453Z,61.69
2022-12-19T14:11:38.651Z,61.66
2022-12-19T14:14:16.434Z,62.06
2022-12-19T14:16:47.018Z,62.56
2022-12-19T14:19:27.722Z,62.59
2022-12-19T14:22:05.443Z,62.77
2022-12-19T14:24:40.217Z,63.33
2022-12-19T14:28:20.292Z,63.37
2022-12-19T14:30:30.802Z,63.70
2022-12-19T14:33:43.766Z,63.57
2022-12-19T14:36:10.008Z,63.30
2022-12-19T14:39:25.379Z,63.62
2022-12-19T14:41:46.189Z,63.60
2022-12-19T14:52:25.769Z,64.34
2022-12-19T14:52:34.500Z,64.26
2022-12-19T14:54:24.479Z,64.48
2022-12-19T14:54:52.804Z,64.72
2022-12-19T14:59:03.023Z,64.97
2022-12-19T15:01:34.167Z,65.19
2022-12-19T15:04:53.200Z,64.89
2022-12-19T15:07:12.218Z,65.23
2022-12-19T15:11:05.010Z,65.30
2022-12-19T15:14:46.966Z,65.05
2022-12-19T15:16:23.827Z,65.03
2022-12-19T15:18:54.018Z,65.41
2022-12-19T15:21:20.917Z,65.36
2022-12-19T15:23:47.802Z,65.48
2022-12-19T15:26:17.937Z,65.29
2022-12-19T15:28:54.743Z,64.95
2022-12-19T15:31:48.177Z,65.11
2022-12-19T15:34:34.831Z,65.27
2022-12-19T15:37:02.771Z,65.46
2022-12-19T15:39:30.269Z,65.38
2022-12-19T15:41:59.667Z,65.33
2022-12-19T15:44:37.315Z,65.08
2022-12-19T15:47:07.951Z,65.27
2022-12-19T15:49:35.278Z,65.25
2022-12-19T15:52:02.815Z,65.53
2022-12-19T15:57:39.233Z,65.27
2022-12-19T16:00:24.965Z,65.36
2022-12-19T16:03:23.426Z,65.23
2022-12-19T16:05:41.331Z,65.18
2022-12-19T16:08:13.885Z,65.71
2022-12-19T16:10:44.187Z,65.14
2022-12-19T16:13:37.206Z,65.93
2022-12-19T16:16:11.095Z,65.18
2022-12-19T16:18:42.573Z,65.22
2022-12-19T16:21:22.654Z,65.83
2022-12-19T16:23:53.198Z,65.55
2022-12-19T16:26:33.966Z,65.63
2022-12-19T16:29:01.657Z,65.82
2022-12-19T16:31:28.672Z,65.75
2022-12-19T16:33:55.872Z,65.53
2022-12-19T16:36:23.113Z,65.79
2022-12-19T16:38:50.036Z,65.57
2022-12-19T16:41:24.475Z,65.26
2022-12-19T16:43:52.274Z,65.80
2022-12-19T16:46:23.693Z,65.75
2022-12-19T16:48:51.066Z,65.60
2022-12-19T16:51:24.848Z,65.41
2022-12-19T16:54:00.321Z,65.77
2022-12-19T16:56:33.428Z,65.70
2022-12-19T16:59:03.854Z,65.82
2022-12-19T17:01:30.860Z,65.92
2022-12-19T17:03:57.904Z,66.02
2022-12-19T17:06:24.932Z,65.74
2022-12-19T17:08:51.930Z,65.79
2022-12-19T17:11:21.391Z,65.65
2022-12-19T17:13:51.546Z,65.91
2022-12-19T17:16:19.038Z,66.36
2022-12-19T17:18:47.171Z,66.12
2022-12-19T17:21:18.926Z,66.00
2022-12-19T17:23:46.360Z,66.19
2022-12-19T17:26:17.658Z,66.51
2022-12-19T17:28:47.916Z,66.60
2022-12-19T17:31:22.619Z,66.81
2022-12-19T17:33:49.819Z,66.57
2022-12-19T17:36:21.356Z,66.58
2022-12-19T17:38:51.878Z,66.79
2022-12-19T17:41:18.757Z,66.34
2022-12-19T17:43:45.665Z,66.33
2022-12-19T17:46:21.621Z,66.53
2022-12-19T17:48:53.171Z,66.14
2022-12-19T17:51:22.957Z,66.61
2022-12-19T17:53:50.043Z,66.11
2022-12-19T17:56:19.746Z,66.18
2022-12-19T17:58:49.158Z,66.20
2022-12-19T18:01:21.559Z,66.50
2022-12-19T18:03:51.461Z,66.06
2022-12-19T18:06:18.496Z,66.34
2022-12-19T18:08:45.704Z,66.21
2022-12-19T18:11:22.716Z,66.28
2022-12-19T18:13:50.431Z,66.20
2022-12-19T18:16:21.719Z,66.06
2022-12-19T18:18:48.785Z,66.12
2022-12-19T18:21:18.686Z,66.10
2022-12-19T18:23:46.390Z,66.09
2022-12-19T18:26:13.928Z,65.93
2022-12-19T18:28:42.270Z,66.21
2022-12-19T18:31:17.416Z,65.96
2022-12-19T18:33:47.138Z,66.32
2022-12-19T18:36:20.310Z,66.23
2022-12-19T18:38:48.731Z,66.18
2022-12-19T18:41:18.026Z,66.28
2022-12-19T18:43:45.591Z,66.00
2022-12-19T18:46:19.710Z,66.11
2022-12-19T18:48:47.101Z,66.14
2022-12-19T18:51:18.604Z,65.88
2022-12-19T18:53:47.862Z,66.05
2022-12-19T18:56:15.530Z,65.73
2022-12-19T18:58:42.784Z,65.96
2022-12-19T19:01:21.851Z,66.06
2022-12-19T19:03:57.431Z,65.94
2022-12-19T19:06:28.859Z,65.89
2022-12-19T19:08:57.014Z,65.83
2022-12-19T19:11:51.551Z,65.80
2022-12-19T19:14:18.439Z,66.08
2022-12-19T19:16:45.447Z,66.02
2022-12-19T19:19:17.312Z,66.00
2022-12-19T19:21:44.255Z,65.93
2022-12-19T19:24:15.644Z,65.96
2022-12-19T19:26:42.798Z,66.05
2022-12-19T19:29:09.926Z,65.78
2022-12-19T19:31:41.200Z,65.97
2022-12-19T19:34:24.395Z,66.17
2022-12-19T19:36:56.069Z,66.01
2022-12-19T19:39:23.868Z,66.20
2022-12-19T19:41:50.788Z,65.86
2022-12-19T19:44:17.671Z,65.96
2022-12-19T19:46:46.110Z,65.94
2022-12-19T19:49:13.079Z,65.93
2022-12-19T19:51:40.051Z,66.08
2022-12-19T19:54:06.933Z,66.12
2022-12-19T19:56:33.858Z,66.13
2022-12-19T19:59:00.834Z,66.02
2022-12-19T20:01:28.989Z,66.13
2022-12-19T20:03:56.088Z,66.02
2022-12-19T20:06:23.384Z,66.02
2022-12-19T20:08:50.359Z,65.91
2022-12-19T20:11:17.649Z,66.03
2022-12-19T20:13:44.796Z,66.04
2022-12-19T20:16:17.902Z,66.02
2022-12-19T20:18:51.231Z,66.00
2022-12-19T20:21:19.877Z,66.07
2022-12-19T20:23:47.243Z,66.09
2022-12-19T20:26:16.442Z,66.27
2022-12-19T20:28:49.014Z,65.79
2022-12-19T20:31:19.372Z,66.20
2022-12-19T20:33:46.450Z,65.90
2022-12-19T20:36:13.930Z,65.99
2022-12-19T20:38:40.947Z,65.71
2022-12-19T20:41:08.155Z,65.80
2022-12-19T20:43:35.310Z,65.86
2022-12-19T20:46:05.431Z,65.88
2022-12-19T20:48:32.678Z,65.82
2022-12-19T20:51:01.097Z,65.94
2022-12-19T20:53:28.504Z,65.73
2022-12-19T20:55:58.865Z,65.62
2022-12-19T20:58:30.991Z,65.82
2022-12-19T21:01:06.349Z,65.64
2022-12-19T21:03:34.324Z,65.64
2022-12-19T21:06:01.397Z,65.68
2022-12-19T21:08:28.400Z,65.74
2022-12-19T21:10:55.338Z,65.45
2022-12-19T21:13:23.726Z,65.67
2022-12-19T21:15:59.859Z,65.57
2022-12-19T21:18:27.431Z,65.60
2022-12-19T21:20:55.685Z,65.67
2022-12-19T21:23:23.905Z,65.54
2022-12-19T21:25:52.345Z,65.56
2022-12-19T21:28:19.448Z,65.39
2022-12-19T21:30:46.361Z,65.51
2022-12-19T21:33:13.267Z,65.46
2022-12-19T21:35:40.161Z,65.88
2022-12-19T21:38:07.047Z,65.48
2022-12-19T21:40:37.216Z,65.54
2022-12-19T21:43:11.156Z,65.48
2022-12-19T21:45:38.909Z,65.50
2022-12-19T21:48:06.083Z,65.46
2022-12-19T21:50:33.885Z,65.40
2022-12-19T21:53:01.153Z,65.40
2022-12-19T21:55:28.097Z,65.64
2022-12-19T21:57:54.991Z,65.52
2022-12-19T22:00:22.130Z,65.66
2022-12-19T22:03:12.116Z,65.72
2022-12-19T22:05:36.668Z,65.55
2022-12-19T22:08:03.559Z,65.61
2022-12-19T22:10:30.521Z,65.62
2022-12-19T22:12:57.397Z,65.59
2022-12-19T22:15:24.297Z,65.81
2022-12-19T22:17:51.174Z,65.68
2022-12-19T22:20:18.063Z,65.73
2022-12-19T22:22:45.042Z,65.54
2022-12-19T22:25:11.950Z,65.43
2022-12-19T22:27:38.916Z,65.48
2022-12-19T22:30:11.197Z,65.52
2022-12-19T22:32:38.269Z,65.60
2022-12-19T22:35:06.027Z,65.59
2022-12-19T22:37:33.049Z,65.46
2022-12-19T22:40:00.433Z,65.59
2022-12-19T22:42:30.247Z,65.41
2022-12-19T22:44:57.148Z,65.51
2022-12-19T22:47:24.040Z,65.33
2022-12-19T22:49:52.145Z,65.47
2022-12-19T22:52:19.357Z,65.21
2022-12-19T22:54:46.379Z,65.25
2022-12-19T22:57:13.260Z,65.31
2022-12-19T22:59:40.417Z,65.51
2022-12-19T23:02:07.565Z,65.20
2022-12-19T23:04:36.040Z,65.18
2022-12-19T23:07:02.995Z,65.12
2022-12-19T23:09:29.884Z,65.16
2022-12-19T23:11:56.853Z,64.57
2022-12-19T23:14:23.739Z,64.79
2022-12-19T23:16:50.807Z,64.68
2022-12-19T23:19:18.444Z,64.79
2022-12-19T23:21:45.493Z,64.79
2022-12-19T23:24:12.891Z,64.74
2022-12-19T23:26:40.036Z,64.59
2022-12-19T23:29:12.139Z,64.47
2022-12-19T23:31:41.566Z,64.53
2022-12-19T23:34:08.783Z,64.55
2022-12-19T23:37:09.659Z,64.87
2022-12-19T23:39:22.579Z,64.45
2022-12-19T23:41:49.472Z,64.25
2022-12-19T23:44:16.513Z,64.28
2022-12-19T23:46:43.407Z,64.56
2022-12-19T23:49:10.273Z,64.40
2022-12-19T23:51:37.190Z,64.46
2022-12-19T23:54:04.365Z,64.59
2022-12-19T23:56:32.595Z,64.52
2022-12-19T23:58:59.819Z,64.27
